Pagina principale
METAR-TAF:

METAR-TAF

Aeroporti :

Aeroporto di Catania-Fontanarossa

Catania, Italia

latitudine: 37-28N, longitudine: 015-03E, altezza: 11 m

Osservazione

Il bollettino è stato emesso 32 minuti fa, alle 01:20 UTC
Vento 4 kt da est/nord-est, variando fra nord e est/sud-est
Temperature 20°C
Umidità 53%
Pressione 1012 hPa
Visibilità 10 km o più
nessuna nube inferiore a 1500 m e nessun cumulonembo

METAR: LICC 160120Z 07004KT 010V110 CAVOK 20/10 Q1012

Ora: 03:52 (01:52 UTC)

Previsione

Il bollettino è stato emesso 2 ore e 52 minuti fa, alle 23:00 UTC
Previsione valida dal 16 alle 00 UTC al 16 alle 24 UTC
Vento 6 kt da direzioni variabili
Visibilità 10 km o più
Nubi sparse ad un'altezza di 3000 ft
Temporaneamente
dal 16 alle 09 UTC al 16 alle 22 UTC
pioggia,

TAF: LICC 152300Z 1600/1624 VRB06KT 9999 SCT030 TEMPO 1609/1622 RA

Osservazioni e previsioni meteorologiche di più di 4000 aeroporti (messaggi METAR e TAF).

Le stazioni disponibili sono rappresentate dai dischi gialli e rossi sulla carta.

Puntare il mouse per vedere il nome della stazione.

Clicca sopra per visualizzare le osservazioni e previsioni meteorologiche.

Per cambiare la mappa : fare clic sui pulsanti verdi con una croce nera per ingrandire, il pulsante verde con un trattino per diminuire, o sulla freccia verde per le mappe adiacenti.


METAR-TAF: